sensor_id;sensor_type;location;lat;lon;timestamp;temperature;humidity
2130;DHT22;1071;52.544;13.374;2022-11-02T00:00:13;14.60;99.90
2130;DHT22;1071;52.544;13.374;2022-11-02T00:02:41;14.60;99.90
2130;DHT22;1071;52.544;13.374;2022-11-02T00:05:12;14.50;99.90
2130;DHT22;1071;52.544;13.374;2022-11-02T00:07:40;14.60;99.90
2130;DHT22;1071;52.544;13.374;2022-11-02T00:10:08;14.50;99.90
2130;DHT22;1071;52.544;13.374;2022-11-02T00:12:35;14.40;99.90
2130;DHT22;1071;52.544;13.374;2022-11-02T00:15:04;14.50;99.90
2130;DHT22;1071;52.544;13.374;2022-11-02T00:17:32;14.40;99.90
2130;DHT22;1071;52.544;13.374;2022-11-02T00:20:00;14.40;99.90
2130;DHT22;1071;52.544;13.374;2022-11-02T00:22:29;14.40;99.90
2130;DHT22;1071;52.544;13.374;2022-11-02T00:25:02;14.40;99.90
2130;DHT22;1071;52.544;13.374;2022-11-02T00:27:32;14.30;99.90
2130;DHT22;1071;52.544;13.374;2022-11-02T00:29:59;14.30;99.90
2130;DHT22;1071;52.544;13.374;2022-11-02T00:32:28;14.30;99.90
2130;DHT22;1071;52.544;13.374;2022-11-02T00:34:55;14.30;99.90
2130;DHT22;1071;52.544;13.374;2022-11-02T00:37:24;14.30;99.90
2130;DHT22;1071;52.544;13.374;2022-11-02T00:39:53;14.30;99.90
2130;DHT22;1071;52.544;13.374;2022-11-02T00:42:20;14.20;99.90
2130;DHT22;1071;52.544;13.374;2022-11-02T00:44:48;14.20;99.90
2130;DHT22;1071;52.544;13.374;2022-11-02T00:47:15;14.20;99.90
2130;DHT22;1071;52.544;13.374;2022-11-02T00:49:42;14.20;99.90
2130;DHT22;1071;52.544;13.374;2022-11-02T00:52:11;14.20;99.90
2130;DHT22;1071;52.544;13.374;2022-11-02T00:54:39;14.10;99.90
2130;DHT22;1071;52.544;13.374;2022-11-02T00:57:07;14.10;99.90
2130;DHT22;1071;52.544;13.374;2022-11-02T00:59:34;14.10;99.90
2130;DHT22;1071;52.544;13.374;2022-11-02T01:02:01;14.10;99.90
2130;DHT22;1071;52.544;13.374;2022-11-02T01:04:28;14.00;99.90
2130;DHT22;1071;52.544;13.374;2022-11-02T01:06:56;14.00;99.90
2130;DHT22;1071;52.544;13.374;2022-11-02T01:09:28;13.90;99.90
2130;DHT22;1071;52.544;13.374;2022-11-02T01:11:56;14.00;99.90
2130;DHT22;1071;52.544;13.374;2022-11-02T01:14:24;14.00;99.90
2130;DHT22;1071;52.544;13.374;2022-11-02T01:16:51;13.90;99.90
2130;DHT22;1071;52.544;13.374;2022-11-02T01:19:18;13.90;99.90
2130;DHT22;1071;52.544;13.374;2022-11-02T01:21:46;13.90;99.90
2130;DHT22;1071;52.544;13.374;2022-11-02T01:24:13;13.90;99.90
2130;DHT22;1071;52.544;13.374;2022-11-02T01:26:48;13.90;99.90
2130;DHT22;1071;52.544;13.374;2022-11-02T01:29:24;13.80;99.90
2130;DHT22;1071;52.544;13.374;2022-11-02T01:31:51;13.80;99.90
2130;DHT22;1071;52.544;13.374;2022-11-02T01:34:18;13.80;99.90
2130;DHT22;1071;52.544;13.374;2022-11-02T01:36:46;13.80;99.90
2130;DHT22;1071;52.544;13.374;2022-11-02T01:39:13;13.80;99.90
2130;DHT22;1071;52.544;13.374;2022-11-02T01:41:41;13.80;99.90
2130;DHT22;1071;52.544;13.374;2022-11-02T01:44:30;13.70;99.90
2130;DHT22;1071;52.544;13.374;2022-11-02T01:47:00;13.80;99.90
2130;DHT22;1071;52.544;13.374;2022-11-02T01:49:33;13.70;99.90
2130;DHT22;1071;52.544;13.374;2022-11-02T01:52:05;13.70;99.90
2130;DHT22;1071;52.544;13.374;2022-11-02T01:54:36;13.70;99.90
2130;DHT22;1071;52.544;13.374;2022-11-02T01:57:08;13.70;99.90
2130;DHT22;1071;52.544;13.374;2022-11-02T01:59:40;13.70;99.90
2130;DHT22;1071;52.544;13.374;2022-11-02T02:02:14;13.60;99.90
2130;DHT22;1071;52.544;13.374;2022-11-02T02:04:43;13.60;99.90
2130;DHT22;1071;52.544;13.374;2022-11-02T02:07:11;13.60;99.90
2130;DHT22;1071;52.544;13.374;2022-11-02T02:09:40;13.60;99.90
2130;DHT22;1071;52.544;13.374;2022-11-02T02:12:09;13.50;99.90
2130;DHT22;1071;52.544;13.374;2022-11-02T02:14:40;13.50;99.90
2130;DHT22;1071;52.544;13.374;2022-11-02T02:17:22;13.50;99.90
2130;DHT22;1071;52.544;13.374;2022-11-02T02:23:46;13.50;99.90
2130;DHT22;1071;52.544;13.374;2022-11-02T02:26:50;13.40;99.90
2130;DHT22;1071;52.544;13.374;2022-11-02T02:29:24;13.40;99.90
2130;DHT22;1071;52.544;13.374;2022-11-02T02:31:57;13.40;99.90
2130;DHT22;1071;52.544;13.374;2022-11-02T02:34:29;13.30;99.90
2130;DHT22;1071;52.544;13.374;2022-11-02T02:37:02;13.30;99.90
2130;DHT22;1071;52.544;13.374;2022-11-02T02:39:36;13.40;99.90
2130;DHT22;1071;52.544;13.374;2022-11-02T02:42:10;13.40;99.90
2130;DHT22;1071;52.544;13.374;2022-11-02T02:44:44;13.30;99.90
2130;DHT22;1071;52.544;13.374;2022-11-02T02:47:16;13.30;99.90
2130;DHT22;1071;52.544;13.374;2022-11-02T02:49:49;13.30;99.90
2130;DHT22;1071;52.544;13.374;2022-11-02T02:52:17;13.30;99.90
2130;DHT22;1071;52.544;13.374;2022-11-02T02:54:46;13.30;99.90
2130;DHT22;1071;52.544;13.374;2022-11-02T02:57:17;13.30;99.90
2130;DHT22;1071;52.544;13.374;2022-11-02T02:59:48;13.30;99.90
2130;DHT22;1071;52.544;13.374;2022-11-02T03:02:17;13.30;99.90
2130;DHT22;1071;52.544;13.374;2022-11-02T03:04:46;13.30;99.90
2130;DHT22;1071;52.544;13.374;2022-11-02T03:07:16;13.30;99.90
2130;DHT22;1071;52.544;13.374;2022-11-02T03:09:55;13.30;99.90
2130;DHT22;1071;52.544;13.374;2022-11-02T03:12:35;13.20;99.90
2130;DHT22;1071;52.544;13.374;2022-11-02T03:15:09;13.20;99.90
2130;DHT22;1071;52.544;13.374;2022-11-02T03:17:45;13.20;99.90
2130;DHT22;1071;52.544;13.374;2022-11-02T03:20:20;13.20;99.90
2130;DHT22;1071;52.544;13.374;2022-11-02T03:22:56;13.20;99.90
2130;DHT22;1071;52.544;13.374;2022-11-02T03:25:28;13.10;99.90
2130;DHT22;1071;52.544;13.374;2022-11-02T03:28:02;13.10;99.90
2130;DHT22;1071;52.544;13.374;2022-11-02T03:30:39;13.10;99.90
2130;DHT22;1071;52.544;13.374;2022-11-02T03:33:15;13.00;99.90
2130;DHT22;1071;52.544;13.374;2022-11-02T03:35:50;13.00;99.90
2130;DHT22;1071;52.544;13.374;2022-11-02T03:38:20;13.00;99.90
2130;DHT22;1071;52.544;13.374;2022-11-02T03:40:50;13.00;99.90
2130;DHT22;1071;52.544;13.374;2022-11-02T03:43:19;13.00;99.90
2130;DHT22;1071;52.544;13.374;2022-11-02T03:45:51;13.00;99.90
2130;DHT22;1071;52.544;13.374;2022-11-02T03:48:20;13.00;99.90
2130;DHT22;1071;52.544;13.374;2022-11-02T03:50:50;13.00;99.90
2130;DHT22;1071;52.544;13.374;2022-11-02T03:53:21;12.90;99.90
2130;DHT22;1071;52.544;13.374;2022-11-02T03:55:52;12.90;99.90
2130;DHT22;1071;52.544;13.374;2022-11-02T03:58:21;12.90;99.90
2130;DHT22;1071;52.544;13.374;2022-11-02T04:00:53;12.90;99.90
2130;DHT22;1071;52.544;13.374;2022-11-02T04:03:23;12.90;99.90
2130;DHT22;1071;52.544;13.374;2022-11-02T04:05:50;12.80;99.90
2130;DHT22;1071;52.544;13.374;2022-11-02T04:08:25;12.80;99.90
2130;DHT22;1071;52.544;13.374;2022-11-02T04:11:20;12.80;99.90
2130;DHT22;1071;52.544;13.374;2022-11-02T04:14:05;12.70;99.90
2130;DHT22;1071;52.544;13.374;2022-11-02T04:16:50;12.70;99.90
2130;DHT22;1071;52.544;13.374;2022-11-02T04:19:38;12.70;99.90
2130;DHT22;1071;52.544;13.374;2022-11-02T04:22:04;12.70;99.90
2130;DHT22;1071;52.544;13.374;2022-11-02T04:24:48;12.70;99.90
2130;DHT22;1071;52.544;13.374;2022-11-02T04:27:36;12.70;99.90
2130;DHT22;1071;52.544;13.374;2022-11-02T04:30:04;12.60;99.90
2130;DHT22;1071;52.544;13.374;2022-11-02T04:32:37;12.60;99.90
2130;DHT22;1071;52.544;13.374;2022-11-02T04:35:21;12.60;99.90
2130;DHT22;1071;52.544;13.374;2022-11-02T04:37:48;12.60;99.90
2130;DHT22;1071;52.544;13.374;2022-11-02T04:40:32;12.60;99.90
2130;DHT22;1071;52.544;13.374;2022-11-02T04:42:59;12.60;99.90
2130;DHT22;1071;52.544;13.374;2022-11-02T04:45:27;12.50;99.90
2130;DHT22;1071;52.544;13.374;2022-11-02T04:47:59;12.50;99.90
2130;DHT22;1071;52.544;13.374;2022-11-02T04:50:27;12.50;99.90
2130;DHT22;1071;52.544;13.374;2022-11-02T04:52:55;12.50;99.90
2130;DHT22;1071;52.544;13.374;2022-11-02T04:55:23;12.50;99.90
2130;DHT22;1071;52.544;13.374;2022-11-02T04:57:51;12.50;99.90
2130;DHT22;1071;52.544;13.374;2022-11-02T05:00:21;12.50;99.90
2130;DHT22;1071;52.544;13.374;2022-11-02T05:02:49;12.50;99.90
2130;DHT22;1071;52.544;13.374;2022-11-02T05:05:18;12.50;99.90
2130;DHT22;1071;52.544;13.374;2022-11-02T05:07:45;12.40;99.90
2130;DHT22;1071;52.544;13.374;2022-11-02T05:10:12;12.40;99.90
2130;DHT22;1071;52.544;13.374;2022-11-02T05:12:42;12.40;99.90
2130;DHT22;1071;52.544;13.374;2022-11-02T05:15:09;12.40;99.90
2130;DHT22;1071;52.544;13.374;2022-11-02T05:17:36;12.40;99.90
2130;DHT22;1071;52.544;13.374;2022-11-02T05:20:04;12.40;99.90
2130;DHT22;1071;52.544;13.374;2022-11-02T05:22:34;12.40;99.90
2130;DHT22;1071;52.544;13.374;2022-11-02T05:25:01;12.40;99.90
2130;DHT22;1071;52.544;13.374;2022-11-02T05:27:28;12.40;99.90
2130;DHT22;1071;52.544;13.374;2022-11-02T05:29:58;12.40;99.90
2130;DHT22;1071;52.544;13.374;2022-11-02T05:32:26;12.40;99.90
2130;DHT22;1071;52.544;13.374;2022-11-02T05:34:53;12.40;99.90
2130;DHT22;1071;52.544;13.374;2022-11-02T05:37:22;12.40;99.90
2130;DHT22;1071;52.544;13.374;2022-11-02T05:39:50;12.40;99.90
2130;DHT22;1071;52.544;13.374;2022-11-02T05:42:17;12.40;99.90
2130;DHT22;1071;52.544;13.374;2022-11-02T05:44:50;12.40;99.90
2130;DHT22;1071;52.544;13.374;2022-11-02T05:47:17;12.40;99.90
2130;DHT22;1071;52.544;13.374;2022-11-02T05:49:48;12.40;99.90
2130;DHT22;1071;52.544;13.374;2022-11-02T05:55:50;12.40;99.90
2130;DHT22;1071;52.544;13.374;2022-11-02T05:58:17;12.40;99.90
2130;DHT22;1071;52.544;13.374;2022-11-02T06:00:44;12.40;99.90
2130;DHT22;1071;52.544;13.374;2022-11-02T06:03:12;12.40;99.90
2130;DHT22;1071;52.544;13.374;2022-11-02T06:05:38;12.40;99.90
2130;DHT22;1071;52.544;13.374;2022-11-02T06:08:06;12.40;99.90
2130;DHT22;1071;52.544;13.374;2022-11-02T06:10:33;12.30;99.90
2130;DHT22;1071;52.544;13.374;2022-11-02T06:13:02;12.30;99.90
2130;DHT22;1071;52.544;13.374;2022-11-02T06:15:31;12.30;99.90
2130;DHT22;1071;52.544;13.374;2022-11-02T06:17:58;12.40;99.90
2130;DHT22;1071;52.544;13.374;2022-11-02T06:20:26;12.40;99.90
2130;DHT22;1071;52.544;13.374;2022-11-02T06:22:54;12.40;99.90
2130;DHT22;1071;52.544;13.374;2022-11-02T06:25:21;12.40;99.90
2130;DHT22;1071;52.544;13.374;2022-11-02T06:31:28;12.30;99.90
2130;DHT22;1071;52.544;13.374;2022-11-02T06:33:55;12.30;99.90
2130;DHT22;1071;52.544;13.374;2022-11-02T06:36:22;12.30;99.90
2130;DHT22;1071;52.544;13.374;2022-11-02T06:38:49;12.40;99.90
2130;DHT22;1071;52.544;13.374;2022-11-02T06:41:16;12.30;99.90
2130;DHT22;1071;52.544;13.374;2022-11-02T06:43:43;12.40;99.90
2130;DHT22;1071;52.544;13.374;2022-11-02T06:46:11;12.30;99.90
2130;DHT22;1071;52.544;13.374;2022-11-02T06:48:40;12.40;99.90
2130;DHT22;1071;52.544;13.374;2022-11-02T06:51:07;12.30;99.90
2130;DHT22;1071;52.544;13.374;2022-11-02T06:53:34;12.30;99.90
2130;DHT22;1071;52.544;13.374;2022-11-02T06:56:01;12.40;99.90
2130;DHT22;1071;52.544;13.374;2022-11-02T06:58:29;12.30;99.90
2130;DHT22;1071;52.544;13.374;2022-11-02T07:00:58;12.40;99.90
2130;DHT22;1071;52.544;13.374;2022-11-02T07:03:25;12.40;99.90
2130;DHT22;1071;52.544;13.374;2022-11-02T07:05:57;12.40;99.90
2130;DHT22;1071;52.544;13.374;2022-11-02T07:08:26;12.40;99.90
2130;DHT22;1071;52.544;13.374;2022-11-02T07:10:54;12.40;99.90
2130;DHT22;1071;52.544;13.374;2022-11-02T07:13:21;12.50;99.90
2130;DHT22;1071;52.544;13.374;2022-11-02T07:15:50;12.50;99.90
2130;DHT22;1071;52.544;13.374;2022-11-02T07:18:21;12.50;99.90
2130;DHT22;1071;52.544;13.374;2022-11-02T07:20:48;12.50;99.90
2130;DHT22;1071;52.544;13.374;2022-11-02T07:23:19;12.50;99.90
2130;DHT22;1071;52.544;13.374;2022-11-02T07:25:50;12.50;99.90
2130;DHT22;1071;52.544;13.374;2022-11-02T07:28:17;12.60;99.90
2130;DHT22;1071;52.544;13.374;2022-11-02T07:30:48;12.60;99.90
2130;DHT22;1071;52.544;13.374;2022-11-02T07:33:22;12.60;99.90
2130;DHT22;1071;52.544;13.374;2022-11-02T07:35:49;12.60;99.90
2130;DHT22;1071;52.544;13.374;2022-11-02T07:38:21;12.60;99.90
2130;DHT22;1071;52.544;13.374;2022-11-02T07:40:49;12.60;99.90
2130;DHT22;1071;52.544;13.374;2022-11-02T07:43:16;12.70;99.90
2130;DHT22;1071;52.544;13.374;2022-11-02T07:45:43;12.70;99.90
2130;DHT22;1071;52.544;13.374;2022-11-02T07:48:10;12.70;99.90
2130;DHT22;1071;52.544;13.374;2022-11-02T07:50:38;12.80;99.90
2130;DHT22;1071;52.544;13.374;2022-11-02T07:53:06;12.80;99.90
2130;DHT22;1071;52.544;13.374;2022-11-02T07:55:35;12.80;99.90
2130;DHT22;1071;52.544;13.374;2022-11-02T07:58:03;12.90;99.90
2130;DHT22;1071;52.544;13.374;2022-11-02T08:00:34;13.00;99.90
2130;DHT22;1071;52.544;13.374;2022-11-02T08:03:03;13.10;99.90
2130;DHT22;1071;52.544;13.374;2022-11-02T08:05:33;13.10;99.90
2130;DHT22;1071;52.544;13.374;2022-11-02T08:08:02;13.20;99.90
2130;DHT22;1071;52.544;13.374;2022-11-02T08:10:31;13.30;99.90
2130;DHT22;1071;52.544;13.374;2022-11-02T08:13:02;13.40;99.90
2130;DHT22;1071;52.544;13.374;2022-11-02T08:15:29;13.40;99.90
2130;DHT22;1071;52.544;13.374;2022-11-02T08:18:00;13.40;99.90
2130;DHT22;1071;52.544;13.374;2022-11-02T08:20:28;13.50;99.90
2130;DHT22;1071;52.544;13.374;2022-11-02T08:22:55;13.50;99.90
2130;DHT22;1071;52.544;13.374;2022-11-02T08:25:23;13.50;99.90
2130;DHT22;1071;52.544;13.374;2022-11-02T08:27:54;13.50;99.90
2130;DHT22;1071;52.544;13.374;2022-11-02T08:30:24;13.60;99.90
2130;DHT22;1071;52.544;13.374;2022-11-02T08:32:51;13.70;99.90
2130;DHT22;1071;52.544;13.374;2022-11-02T08:35:18;13.80;99.90
2130;DHT22;1071;52.544;13.374;2022-11-02T08:37:52;13.80;99.90
2130;DHT22;1071;52.544;13.374;2022-11-02T08:40:22;13.80;99.90
2130;DHT22;1071;52.544;13.374;2022-11-02T08:42:55;13.80;99.90
2130;DHT22;1071;52.544;13.374;2022-11-02T08:45:23;13.80;99.90
2130;DHT22;1071;52.544;13.374;2022-11-02T08:47:50;13.80;99.90
2130;DHT22;1071;52.544;13.374;2022-11-02T08:50:18;13.90;99.90
2130;DHT22;1071;52.544;13.374;2022-11-02T08:52:45;14.00;99.90
2130;DHT22;1071;52.544;13.374;2022-11-02T08:55:20;14.00;99.90
2130;DHT22;1071;52.544;13.374;2022-11-02T08:57:48;14.00;99.90
2130;DHT22;1071;52.544;13.374;2022-11-02T09:00:16;14.00;99.90
2130;DHT22;1071;52.544;13.374;2022-11-02T09:02:44;14.00;99.90
2130;DHT22;1071;52.544;13.374;2022-11-02T09:05:11;14.00;99.90
2130;DHT22;1071;52.544;13.374;2022-11-02T09:07:38;14.10;99.90
2130;DHT22;1071;52.544;13.374;2022-11-02T09:10:05;14.10;99.90
2130;DHT22;1071;52.544;13.374;2022-11-02T09:12:35;14.10;99.90
2130;DHT22;1071;52.544;13.374;2022-11-02T09:15:02;14.10;99.90
2130;DHT22;1071;52.544;13.374;2022-11-02T09:17:29;14.10;99.90
2130;DHT22;1071;52.544;13.374;2022-11-02T09:19:56;14.20;99.90
2130;DHT22;1071;52.544;13.374;2022-11-02T09:22:23;14.20;99.90
2130;DHT22;1071;52.544;13.374;2022-11-02T09:24:53;14.20;99.90
2130;DHT22;1071;52.544;13.374;2022-11-02T09:27:20;14.20;99.90
2130;DHT22;1071;52.544;13.374;2022-11-02T09:29:49;14.20;99.90
2130;DHT22;1071;52.544;13.374;2022-11-02T09:32:15;14.30;99.90
2130;DHT22;1071;52.544;13.374;2022-11-02T09:34:49;14.30;99.90
2130;DHT22;1071;52.544;13.374;2022-11-02T09:37:16;14.40;99.90
2130;DHT22;1071;52.544;13.374;2022-11-02T09:39:44;14.40;99.90
2130;DHT22;1071;52.544;13.374;2022-11-02T09:42:17;14.50;99.90
2130;DHT22;1071;52.544;13.374;2022-11-02T09:44:52;14.60;99.90
2130;DHT22;1071;52.544;13.374;2022-11-02T09:47:21;14.60;99.90
2130;DHT22;1071;52.544;13.374;2022-11-02T09:49:49;14.60;99.90
2130;DHT22;1071;52.544;13.374;2022-11-02T09:52:23;14.70;99.90
2130;DHT22;1071;52.544;13.374;2022-11-02T09:54:52;14.80;99.90
2130;DHT22;1071;52.544;13.374;2022-11-02T09:57:26;14.80;99.90
2130;DHT22;1071;52.544;13.374;2022-11-02T09:59:55;14.90;99.90
2130;DHT22;1071;52.544;13.374;2022-11-02T10:02:30;15.00;99.90
2130;DHT22;1071;52.544;13.374;2022-11-02T10:05:17;15.00;99.90
2130;DHT22;1071;52.544;13.374;2022-11-02T10:07:59;15.10;99.90
2130;DHT22;1071;52.544;13.374;2022-11-02T10:10:33;15.10;99.90
2130;DHT22;1071;52.544;13.374;2022-11-02T10:13:15;15.20;99.90
2130;DHT22;1071;52.544;13.374;2022-11-02T10:15:48;15.30;99.90
2130;DHT22;1071;52.544;13.374;2022-11-02T10:18:19;15.40;99.90
2130;DHT22;1071;52.544;13.374;2022-11-02T10:20:49;15.40;99.90
2130;DHT22;1071;52.544;13.374;2022-11-02T10:23:21;15.40;99.90
2130;DHT22;1071;52.544;13.374;2022-11-02T10:25:51;15.50;99.90
2130;DHT22;1071;52.544;13.374;2022-11-02T10:28:22;15.50;99.90
2130;DHT22;1071;52.544;13.374;2022-11-02T10:30:53;15.60;99.90
2130;DHT22;1071;52.544;13.374;2022-11-02T10:33:26;15.60;99.90
2130;DHT22;1071;52.544;13.374;2022-11-02T10:36:07;15.60;99.90
2130;DHT22;1071;52.544;13.374;2022-11-02T10:38:43;15.70;99.90
2130;DHT22;1071;52.544;13.374;2022-11-02T10:41:23;15.70;99.90
2130;DHT22;1071;52.544;13.374;2022-11-02T10:44:17;15.80;99.90
2130;DHT22;1071;52.544;13.374;2022-11-02T10:46:56;15.80;99.90
2130;DHT22;1071;52.544;13.374;2022-11-02T10:52:32;15.90;99.90
2130;DHT22;1071;52.544;13.374;2022-11-02T10:55:00;15.90;99.90
2130;DHT22;1071;52.544;13.374;2022-11-02T10:57:29;15.90;99.90
2130;DHT22;1071;52.544;13.374;2022-11-02T11:00:26;16.00;99.90
2130;DHT22;1071;52.544;13.374;2022-11-02T11:03:05;16.00;99.90
2130;DHT22;1071;52.544;13.374;2022-11-02T11:05:33;16.10;99.90
2130;DHT22;1071;52.544;13.374;2022-11-02T11:08:01;16.10;99.90
2130;DHT22;1071;52.544;13.374;2022-11-02T11:10:35;16.10;99.90
2130;DHT22;1071;52.544;13.374;2022-11-02T11:13:06;16.20;99.90
2130;DHT22;1071;52.544;13.374;2022-11-02T11:15:49;16.20;99.90
2130;DHT22;1071;52.544;13.374;2022-11-02T11:18:21;16.30;99.90
2130;DHT22;1071;52.544;13.374;2022-11-02T11:20:53;16.30;99.90
2130;DHT22;1071;52.544;13.374;2022-11-02T11:26:42;16.40;99.90
2130;DHT22;1071;52.544;13.374;2022-11-02T11:29:22;16.50;99.90
2130;DHT22;1071;52.544;13.374;2022-11-02T11:31:55;16.50;99.90
2130;DHT22;1071;52.544;13.374;2022-11-02T11:34:26;16.50;99.90
2130;DHT22;1071;52.544;13.374;2022-11-02T11:37:05;16.60;99.90
2130;DHT22;1071;52.544;13.374;2022-11-02T11:39:36;16.60;99.90
2130;DHT22;1071;52.544;13.374;2022-11-02T11:42:14;16.60;99.90
2130;DHT22;1071;52.544;13.374;2022-11-02T11:44:44;16.70;99.90
2130;DHT22;1071;52.544;13.374;2022-11-02T11:47:12;16.70;99.90
2130;DHT22;1071;52.544;13.374;2022-11-02T11:49:46;16.70;99.90
2130;DHT22;1071;52.544;13.374;2022-11-02T11:52:18;16.70;99.90
2130;DHT22;1071;52.544;13.374;2022-11-02T11:54:54;16.80;99.90
2130;DHT22;1071;52.544;13.374;2022-11-02T11:57:25;16.80;99.90
2130;DHT22;1071;52.544;13.374;2022-11-02T11:59:54;16.80;99.90
2130;DHT22;1071;52.544;13.374;2022-11-02T12:02:28;16.80;99.90
2130;DHT22;1071;52.544;13.374;2022-11-02T12:05:04;16.90;99.90
2130;DHT22;1071;52.544;13.374;2022-11-02T12:10:54;16.90;99.90
2130;DHT22;1071;52.544;13.374;2022-11-02T12:13:54;16.90;99.90
2130;DHT22;1071;52.544;13.374;2022-11-02T12:16:31;16.90;99.90
2130;DHT22;1071;52.544;13.374;2022-11-02T12:19:15;16.90;99.90
2130;DHT22;1071;52.544;13.374;2022-11-02T12:21:53;16.90;99.90
2130;DHT22;1071;52.544;13.374;2022-11-02T12:24:45;16.80;99.90
2130;DHT22;1071;52.544;13.374;2022-11-02T12:27:29;16.80;99.90
2130;DHT22;1071;52.544;13.374;2022-11-02T12:30:38;16.80;99.90
2130;DHT22;1071;52.544;13.374;2022-11-02T12:33:34;16.70;99.90
2130;DHT22;1071;52.544;13.374;2022-11-02T12:36:15;16.70;99.90
2130;DHT22;1071;52.544;13.374;2022-11-02T12:39:00;16.70;99.90
2130;DHT22;1071;52.544;13.374;2022-11-02T12:41:58;16.70;99.90
2130;DHT22;1071;52.544;13.374;2022-11-02T12:44:48;16.80;99.90
2130;DHT22;1071;52.544;13.374;2022-11-02T12:47:28;16.80;99.90
2130;DHT22;1071;52.544;13.374;2022-11-02T12:50:06;16.80;99.90
2130;DHT22;1071;52.544;13.374;2022-11-02T12:52:47;16.80;99.90
2130;DHT22;1071;52.544;13.374;2022-11-02T12:58:20;16.90;99.90
2130;DHT22;1071;52.544;13.374;2022-11-02T13:00:52;16.90;99.90
2130;DHT22;1071;52.544;13.374;2022-11-02T13:03:32;16.90;99.90
2130;DHT22;1071;52.544;13.374;2022-11-02T13:06:07;16.90;99.90
2130;DHT22;1071;52.544;13.374;2022-11-02T13:08:40;16.90;99.90
2130;DHT22;1071;52.544;13.374;2022-11-02T13:11:16;16.90;99.90
2130;DHT22;1071;52.544;13.374;2022-11-02T13:13:51;16.80;99.90
2130;DHT22;1071;52.544;13.374;2022-11-02T13:16:24;16.80;99.80
2130;DHT22;1071;52.544;13.374;2022-11-02T13:18:59;16.80;99.60
2130;DHT22;1071;52.544;13.374;2022-11-02T13:21:32;16.80;99.50
2130;DHT22;1071;52.544;13.374;2022-11-02T13:24:03;16.80;99.80
2130;DHT22;1071;52.544;13.374;2022-11-02T13:26:33;16.80;98.90
2130;DHT22;1071;52.544;13.374;2022-11-02T13:29:11;16.80;98.80
2130;DHT22;1071;52.544;13.374;2022-11-02T13:31:41;16.80;98.60
2130;DHT22;1071;52.544;13.374;2022-11-02T13:34:14;16.80;98.40
2130;DHT22;1071;52.544;13.374;2022-11-02T13:36:43;16.80;98.50
2130;DHT22;1071;52.544;13.374;2022-11-02T13:39:14;16.80;98.40
2130;DHT22;1071;52.544;13.374;2022-11-02T13:42:08;16.70;98.50
2130;DHT22;1071;52.544;13.374;2022-11-02T13:48:09;16.70;98.50
2130;DHT22;1071;52.544;13.374;2022-11-02T13:50:45;16.70;98.60
2130;DHT22;1071;52.544;13.374;2022-11-02T13:53:34;16.70;98.80
2130;DHT22;1071;52.544;13.374;2022-11-02T13:56:06;16.70;98.90
2130;DHT22;1071;52.544;13.374;2022-11-02T13:58:36;16.70;98.90
2130;DHT22;1071;52.544;13.374;2022-11-02T14:01:17;16.80;99.00
2130;DHT22;1071;52.544;13.374;2022-11-02T14:03:47;16.70;99.10
2130;DHT22;1071;52.544;13.374;2022-11-02T14:06:30;16.80;98.90
2130;DHT22;1071;52.544;13.374;2022-11-02T14:09:02;16.80;98.80
2130;DHT22;1071;52.544;13.374;2022-11-02T14:11:39;16.80;99.00
2130;DHT22;1071;52.544;13.374;2022-11-02T14:14:21;16.80;98.80
2130;DHT22;1071;52.544;13.374;2022-11-02T14:17:22;16.80;99.00
2130;DHT22;1071;52.544;13.374;2022-11-02T14:20:36;16.70;99.00
2130;DHT22;1071;52.544;13.374;2022-11-02T14:26:30;16.70;99.30
2130;DHT22;1071;52.544;13.374;2022-11-02T14:29:08;16.70;99.50
2130;DHT22;1071;52.544;13.374;2022-11-02T14:31:59;16.70;99.40
2130;DHT22;1071;52.544;13.374;2022-11-02T14:34:51;16.70;99.30
2130;DHT22;1071;52.544;13.374;2022-11-02T14:37:44;16.70;99.30
2130;DHT22;1071;52.544;13.374;2022-11-02T14:40:25;16.60;99.40
2130;DHT22;1071;52.544;13.374;2022-11-02T14:46:06;16.50;99.70
2130;DHT22;1071;52.544;13.374;2022-11-02T14:48:44;16.50;99.80
2130;DHT22;1071;52.544;13.374;2022-11-02T14:51:17;16.50;99.60
2130;DHT22;1071;52.544;13.374;2022-11-02T14:53:47;16.50;99.20
2130;DHT22;1071;52.544;13.374;2022-11-02T14:56:14;16.50;99.10
2130;DHT22;1071;52.544;13.374;2022-11-02T14:58:48;16.50;99.00
2130;DHT22;1071;52.544;13.374;2022-11-02T15:01:17;16.40;98.80
2130;DHT22;1071;52.544;13.374;2022-11-02T15:03:46;16.40;98.70
2130;DHT22;1071;52.544;13.374;2022-11-02T15:06:18;16.40;98.60
2130;DHT22;1071;52.544;13.374;2022-11-02T15:08:50;16.40;98.60
2130;DHT22;1071;52.544;13.374;2022-11-02T15:11:46;16.40;98.60
2130;DHT22;1071;52.544;13.374;2022-11-02T15:14:57;16.30;98.50
2130;DHT22;1071;52.544;13.374;2022-11-02T15:17:57;16.30;98.60
2130;DHT22;1071;52.544;13.374;2022-11-02T15:20:28;16.30;98.60
2130;DHT22;1071;52.544;13.374;2022-11-02T15:23:13;16.20;98.30
2130;DHT22;1071;52.544;13.374;2022-11-02T15:25:49;16.20;98.10
2130;DHT22;1071;52.544;13.374;2022-11-02T15:28:20;16.20;98.10
2130;DHT22;1071;52.544;13.374;2022-11-02T15:30:49;16.10;97.90
2130;DHT22;1071;52.544;13.374;2022-11-02T15:33:27;16.10;97.80
2130;DHT22;1071;52.544;13.374;2022-11-02T15:36:00;16.10;97.60
2130;DHT22;1071;52.544;13.374;2022-11-02T15:38:34;16.10;97.60
2130;DHT22;1071;52.544;13.374;2022-11-02T15:41:15;16.10;97.60
2130;DHT22;1071;52.544;13.374;2022-11-02T15:43:56;16.10;97.50
2130;DHT22;1071;52.544;13.374;2022-11-02T15:46:44;16.00;97.60
2130;DHT22;1071;52.544;13.374;2022-11-02T15:49:30;16.00;97.40
2130;DHT22;1071;52.544;13.374;2022-11-02T15:52:03;15.90;97.30
2130;DHT22;1071;52.544;13.374;2022-11-02T15:54:48;15.90;97.30
2130;DHT22;1071;52.544;13.374;2022-11-02T15:57:25;15.90;97.40
2130;DHT22;1071;52.544;13.374;2022-11-02T16:00:09;15.90;97.50
2130;DHT22;1071;52.544;13.374;2022-11-02T16:02:39;15.90;97.80
2130;DHT22;1071;52.544;13.374;2022-11-02T16:05:16;15.80;97.90
2130;DHT22;1071;52.544;13.374;2022-11-02T16:07:45;15.80;97.90
2130;DHT22;1071;52.544;13.374;2022-11-02T16:10:23;15.80;98.00
2130;DHT22;1071;52.544;13.374;2022-11-02T16:13:05;15.80;98.00
2130;DHT22;1071;52.544;13.374;2022-11-02T16:15:37;15.80;98.10
2130;DHT22;1071;52.544;13.374;2022-11-02T16:18:22;15.70;98.30
2130;DHT22;1071;52.544;13.374;2022-11-02T16:20:49;15.70;98.30
2130;DHT22;1071;52.544;13.374;2022-11-02T16:23:24;15.70;98.40
2130;DHT22;1071;52.544;13.374;2022-11-02T16:25:54;15.70;98.50
2130;DHT22;1071;52.544;13.374;2022-11-02T16:28:24;15.60;98.50
2130;DHT22;1071;52.544;13.374;2022-11-02T16:31:00;15.60;98.60
2130;DHT22;1071;52.544;13.374;2022-11-02T16:33:30;15.60;98.80
2130;DHT22;1071;52.544;13.374;2022-11-02T16:35:59;15.60;98.60
2130;DHT22;1071;52.544;13.374;2022-11-02T16:38:26;15.50;98.60
2130;DHT22;1071;52.544;13.374;2022-11-02T16:40:56;15.50;98.60
2130;DHT22;1071;52.544;13.374;2022-11-02T16:43:25;15.50;98.70
2130;DHT22;1071;52.544;13.374;2022-11-02T16:45:58;15.50;98.60
2130;DHT22;1071;52.544;13.374;2022-11-02T16:48:33;15.50;98.60
2130;DHT22;1071;52.544;13.374;2022-11-02T16:51:03;15.40;98.60
2130;DHT22;1071;52.544;13.374;2022-11-02T16:53:34;15.40;98.50